sensor_id;sensor_type;location;lat;lon;timestamp;pressure;altitude;pressure_sealevel;temperature;humidity
51099;BME280;37146;48.210;16.234;2023-02-01T00:01:20;98976.09;;;2.47;98.73
51099;BME280;37146;48.210;16.234;2023-02-01T00:03:45;98980.41;;;2.53;98.24
51099;BME280;37146;48.210;16.234;2023-02-01T00:06:10;98961.97;;;2.48;98.66
51099;BME280;37146;48.210;16.234;2023-02-01T00:08:35;98957.53;;;2.52;98.70
51099;BME280;37146;48.210;16.234;2023-02-01T00:11:10;98946.97;;;2.52;98.34
51099;BME280;37146;48.210;16.234;2023-02-01T00:13:36;98970.75;;;2.51;98.57
51099;BME280;37146;48.210;16.234;2023-02-01T00:16:05;98965.50;;;2.49;98.61
51099;BME280;37146;48.210;16.234;2023-02-01T00:18:31;98953.06;;;2.56;97.56
51099;BME280;37146;48.210;16.234;2023-02-01T00:20:56;98943.34;;;2.56;98.12
51099;BME280;37146;48.210;16.234;2023-02-01T00:23:21;98939.81;;;2.57;97.44
51099;BME280;37146;48.210;16.234;2023-02-01T00:25:46;98928.34;;;2.58;97.41
51099;BME280;37146;48.210;16.234;2023-02-01T00:28:12;98895.81;;;2.58;97.07
51099;BME280;37146;48.210;16.234;2023-02-01T00:30:38;98931.84;;;2.60;96.81
51099;BME280;37146;48.210;16.234;2023-02-01T00:33:03;98915.94;;;2.62;96.66
51099;BME280;37146;48.210;16.234;2023-02-01T00:35:28;98929.09;;;2.65;96.19
51099;BME280;37146;48.210;16.234;2023-02-01T00:37:53;98933.53;;;2.63;96.56
51099;BME280;37146;48.210;16.234;2023-02-01T00:40:19;98929.13;;;2.63;96.50
51099;BME280;37146;48.210;16.234;2023-02-01T00:42:44;98945.78;;;2.67;96.64
51099;BME280;37146;48.210;16.234;2023-02-01T00:45:09;98932.75;;;2.59;97.58
51099;BME280;37146;48.210;16.234;2023-02-01T00:47:34;98937.88;;;2.66;96.73
51099;BME280;37146;48.210;16.234;2023-02-01T00:50:00;98918.50;;;2.67;96.47
51099;BME280;37146;48.210;16.234;2023-02-01T00:52:25;98944.81;;;2.71;96.00
51099;BME280;37146;48.210;16.234;2023-02-01T00:54:50;98938.81;;;2.65;97.62
51099;BME280;37146;48.210;16.234;2023-02-01T00:57:15;98938.66;;;2.71;95.46
51099;BME280;37146;48.210;16.234;2023-02-01T00:59:41;98937.03;;;2.65;96.68
51099;BME280;37146;48.210;16.234;2023-02-01T01:02:06;98952.16;;;2.57;97.83
51099;BME280;37146;48.210;16.234;2023-02-01T01:04:31;98941.56;;;2.58;97.68
51099;BME280;37146;48.210;16.234;2023-02-01T01:06:56;98956.41;;;2.64;96.97
51099;BME280;37146;48.210;16.234;2023-02-01T01:09:21;98958.28;;;2.59;97.61
51099;BME280;37146;48.210;16.234;2023-02-01T01:11:47;98949.38;;;2.65;96.30
51099;BME280;37146;48.210;16.234;2023-02-01T01:14:12;98944.81;;;2.71;96.00
51099;BME280;37146;48.210;16.234;2023-02-01T01:16:37;98953.72;;;2.66;96.66
51099;BME280;37146;48.210;16.234;2023-02-01T01:19:03;98958.94;;;2.69;96.77
51099;BME280;37146;48.210;16.234;2023-02-01T01:21:28;98944.84;;;2.70;96.04
51099;BME280;37146;48.210;16.234;2023-02-01T01:23:53;98964.03;;;2.78;95.00
51099;BME280;37146;48.210;16.234;2023-02-01T01:26:20;98958.00;;;2.71;96.30
51099;BME280;37146;48.210;16.234;2023-02-01T01:28:46;98964.13;;;2.75;94.90
51099;BME280;37146;48.210;16.234;2023-02-01T01:31:12;98963.28;;;2.73;96.44
51099;BME280;37146;48.210;16.234;2023-02-01T01:33:37;98951.81;;;2.72;96.03
51099;BME280;37146;48.210;16.234;2023-02-01T01:36:04;98934.41;;;2.63;96.97
51099;BME280;37146;48.210;16.234;2023-02-01T01:38:29;98950.19;;;2.67;96.36
51099;BME280;37146;48.210;16.234;2023-02-01T01:40:54;98930.91;;;2.63;96.92
51099;BME280;37146;48.210;16.234;2023-02-01T01:43:20;98950.22;;;2.65;96.74
51099;BME280;37146;48.210;16.234;2023-02-01T01:45:48;98964.28;;;2.66;96.36
51099;BME280;37146;48.210;16.234;2023-02-01T01:48:17;98936.88;;;2.71;96.10
51099;BME280;37146;48.210;16.234;2023-02-01T01:51:06;98928.19;;;2.66;96.67
51099;BME280;37146;48.210;16.234;2023-02-01T01:53:32;98930.84;;;2.66;97.04
51099;BME280;37146;48.210;16.234;2023-02-01T01:55:58;98934.25;;;2.71;96.06
51099;BME280;37146;48.210;16.234;2023-02-01T01:58:25;98930.88;;;2.65;97.22
51099;BME280;37146;48.210;16.234;2023-02-01T02:00:51;98944.09;;;2.63;97.80
51099;BME280;37146;48.210;16.234;2023-02-01T02:05:42;98931.59;;;2.73;97.28
51099;BME280;37146;48.210;16.234;2023-02-01T02:08:08;98936.03;;;2.71;98.21
51099;BME280;37146;48.210;16.234;2023-02-01T02:10:33;98929.94;;;2.67;97.78
51099;BME280;37146;48.210;16.234;2023-02-01T02:13:17;98944.84;;;2.70;98.21
51099;BME280;37146;48.210;16.234;2023-02-01T02:15:44;98950.91;;;2.75;97.73
51099;BME280;37146;48.210;16.234;2023-02-01T02:18:27;98939.47;;;2.74;98.28
51099;BME280;37146;48.210;16.234;2023-02-01T02:23:33;98934.97;;;2.78;97.40
51099;BME280;37146;48.210;16.234;2023-02-01T02:38:58;98951.88;;;2.71;99.28
51099;BME280;37146;48.210;16.234;2023-02-01T02:41:33;98937.72;;;2.75;98.18
51099;BME280;37146;48.210;16.234;2023-02-01T02:44:24;98943.91;;;2.74;98.77
51099;BME280;37146;48.210;16.234;2023-02-01T02:47:15;98946.66;;;2.68;100.00
51099;BME280;37146;48.210;16.234;2023-02-01T02:49:52;98963.47;;;2.63;100.00
51099;BME280;37146;48.210;16.234;2023-02-01T02:52:41;98953.72;;;2.66;100.00
51099;BME280;37146;48.210;16.234;2023-02-01T02:55:28;98955.53;;;2.63;100.00
51099;BME280;37146;48.210;16.234;2023-02-01T02:57:55;98941.50;;;2.61;100.00
51099;BME280;37146;48.210;16.234;2023-02-01T03:00:39;98942.50;;;2.56;100.00
51099;BME280;37146;48.210;16.234;2023-02-01T03:03:23;98943.34;;;2.56;100.00
51099;BME280;37146;48.210;16.234;2023-02-01T03:06:12;98947.94;;;2.48;100.00
51099;BME280;37146;48.210;16.234;2023-02-01T03:08:39;98943.53;;;2.47;100.00
51099;BME280;37146;48.210;16.234;2023-02-01T03:11:11;98938.25;;;2.47;100.00
51099;BME280;37146;48.210;16.234;2023-02-01T03:13:45;98953.28;;;2.43;100.00
51099;BME280;37146;48.210;16.234;2023-02-01T03:18:51;98957.53;;;2.51;100.00
51099;BME280;37146;48.210;16.234;2023-02-01T03:21:22;98964.56;;;2.53;100.00
51099;BME280;37146;48.210;16.234;2023-02-01T03:23:48;98969.94;;;2.47;100.00
51099;BME280;37146;48.210;16.234;2023-02-01T03:26:14;98968.16;;;2.49;100.00
51099;BME280;37146;48.210;16.234;2023-02-01T03:28:43;98969.88;;;2.50;100.00
51099;BME280;37146;48.210;16.234;2023-02-01T03:31:13;98963.91;;;2.42;100.00
51099;BME280;37146;48.210;16.234;2023-02-01T03:33:39;98962.88;;;2.49;100.00
51099;BME280;37146;48.210;16.234;2023-02-01T03:41:36;98963.47;;;2.62;100.00
51099;BME280;37146;48.210;16.234;2023-02-01T03:46:32;98962.69;;;2.58;100.00
51099;BME280;37146;48.210;16.234;2023-02-01T03:49:00;98963.66;;;2.53;100.00
51099;BME280;37146;48.210;16.234;2023-02-01T03:51:27;98968.09;;;2.52;100.00
51099;BME280;37146;48.210;16.234;2023-02-01T03:53:53;98965.31;;;2.58;100.00
51099;BME280;37146;48.210;16.234;2023-02-01T03:56:19;98962.69;;;2.58;100.00
51099;BME280;37146;48.210;16.234;2023-02-01T03:58:46;98956.38;;;2.66;100.00
51099;BME280;37146;48.210;16.234;2023-02-01T04:01:23;98952.88;;;2.65;100.00
51099;BME280;37146;48.210;16.234;2023-02-01T04:03:48;98960.69;;;2.70;100.00
51099;BME280;37146;48.210;16.234;2023-02-01T04:06:16;98958.06;;;2.70;100.00
51099;BME280;37146;48.210;16.234;2023-02-01T04:08:41;98962.38;;;2.74;100.00
51099;BME280;37146;48.210;16.234;2023-02-01T04:11:06;98951.72;;;2.77;99.23
51099;BME280;37146;48.210;16.234;2023-02-01T04:13:32;98958.84;;;2.75;100.00
51099;BME280;37146;48.210;16.234;2023-02-01T04:15:57;98950.78;;;2.81;99.46
51099;BME280;37146;48.210;16.234;2023-02-01T04:18:22;98958.50;;;2.92;97.82
51099;BME280;37146;48.210;16.234;2023-02-01T04:20:47;98948.09;;;2.83;99.38
51099;BME280;37146;48.210;16.234;2023-02-01T04:23:12;98946.19;;;2.89;98.91
51099;BME280;37146;48.210;16.234;2023-02-01T04:25:38;98952.34;;;2.90;99.16
51099;BME280;37146;48.210;16.234;2023-02-01T04:28:03;98941.91;;;2.84;100.00
51099;BME280;37146;48.210;16.234;2023-02-01T04:30:29;98943.50;;;2.92;99.34
51099;BME280;37146;48.210;16.234;2023-02-01T04:32:55;98948.66;;;2.97;98.85
51099;BME280;37146;48.210;16.234;2023-02-01T04:35:20;98938.91;;;3.01;98.65
51099;BME280;37146;48.210;16.234;2023-02-01T04:37:45;98930.31;;;2.91;99.98
51099;BME280;37146;48.210;16.234;2023-02-01T04:40:10;98921.31;;;3.00;99.47
51099;BME280;37146;48.210;16.234;2023-02-01T04:42:36;98923.03;;;3.01;99.41
51099;BME280;37146;48.210;16.234;2023-02-01T04:45:02;98924.03;;;2.97;100.00
51099;BME280;37146;48.210;16.234;2023-02-01T04:47:27;98923.19;;;2.94;100.00
51099;BME280;37146;48.210;16.234;2023-02-01T04:49:52;98917.84;;;2.98;100.00
51099;BME280;37146;48.210;16.234;2023-02-01T04:52:18;98908.09;;;3.00;100.00
51099;BME280;37146;48.210;16.234;2023-02-01T04:54:43;98919.44;;;3.05;99.49
51099;BME280;37146;48.210;16.234;2023-02-01T04:57:08;98914.16;;;3.03;100.00
51099;BME280;37146;48.210;16.234;2023-02-01T04:59:33;98916.75;;;3.06;99.55
51099;BME280;37146;48.210;16.234;2023-02-01T05:01:59;98908.81;;;3.08;99.85
51099;BME280;37146;48.210;16.234;2023-02-01T05:04:24;98928.22;;;3.07;100.00
51099;BME280;37146;48.210;16.234;2023-02-01T05:06:49;98900.00;;;3.07;100.00
51099;BME280;37146;48.210;16.234;2023-02-01T05:09:14;98921.19;;;3.06;100.00
51099;BME280;37146;48.210;16.234;2023-02-01T05:11:40;98899.81;;;3.15;100.00
51099;BME280;37146;48.210;16.234;2023-02-01T05:14:23;98916.53;;;3.16;100.00
51099;BME280;37146;48.210;16.234;2023-02-01T05:16:48;98911.25;;;3.16;100.00
51099;BME280;37146;48.210;16.234;2023-02-01T05:19:14;98906.06;;;3.11;100.00
51099;BME280;37146;48.210;16.234;2023-02-01T05:21:39;98914.72;;;3.19;100.00
51099;BME280;37146;48.210;16.234;2023-02-01T05:24:04;98915.75;;;3.12;100.00
51099;BME280;37146;48.210;16.234;2023-02-01T05:26:37;98920.22;;;3.08;100.00
51099;BME280;37146;48.210;16.234;2023-02-01T05:29:03;98924.56;;;3.11;100.00
51099;BME280;37146;48.210;16.234;2023-02-01T05:31:28;98906.78;;;3.19;100.00
51099;BME280;37146;48.210;16.234;2023-02-01T05:33:54;98905.44;;;3.00;100.00
51099;BME280;37146;48.210;16.234;2023-02-01T05:36:19;98903.59;;;3.05;100.00
51099;BME280;37146;48.210;16.234;2023-02-01T05:38:44;98900.03;;;3.06;100.00
51099;BME280;37146;48.210;16.234;2023-02-01T05:41:10;98905.28;;;3.07;100.00
51099;BME280;37146;48.210;16.234;2023-02-01T05:43:35;98892.22;;;3.01;100.00
51099;BME280;37146;48.210;16.234;2023-02-01T05:46:00;98898.25;;;3.08;100.00
51099;BME280;37146;48.210;16.234;2023-02-01T05:48:26;98885.88;;;3.08;100.00
51099;BME280;37146;48.210;16.234;2023-02-01T05:50:51;98895.34;;;3.19;100.00
51099;BME280;37146;48.210;16.234;2023-02-01T05:53:16;98886.63;;;3.15;100.00
51099;BME280;37146;48.210;16.234;2023-02-01T05:55:42;98889.31;;;3.12;100.00
51099;BME280;37146;48.210;16.234;2023-02-01T05:58:07;98872.38;;;3.21;100.00
51099;BME280;37146;48.210;16.234;2023-02-01T06:00:32;98866.22;;;3.20;100.00
51099;BME280;37146;48.210;16.234;2023-02-01T06:02:57;98874.25;;;3.17;100.00
51099;BME280;37146;48.210;16.234;2023-02-01T06:05:23;98883.91;;;3.17;100.00
51099;BME280;37146;48.210;16.234;2023-02-01T06:07:48;98880.38;;;3.19;100.00
51099;BME280;37146;48.210;16.234;2023-02-01T06:10:15;98883.84;;;3.20;100.00
51099;BME280;37146;48.210;16.234;2023-02-01T06:12:40;98887.56;;;3.13;100.00
51099;BME280;37146;48.210;16.234;2023-02-01T06:15:06;98892.75;;;3.17;100.00
51099;BME280;37146;48.210;16.234;2023-02-01T06:17:31;98905.06;;;3.17;100.00
51099;BME280;37146;48.210;16.234;2023-02-01T06:19:56;98895.34;;;3.19;100.00
51099;BME280;37146;48.210;16.234;2023-02-01T06:22:21;98904.88;;;3.24;100.00
51099;BME280;37146;48.210;16.234;2023-02-01T06:24:47;98887.94;;;3.33;99.49
51099;BME280;37146;48.210;16.234;2023-02-01T06:27:12;98900.28;;;3.33;99.09
51099;BME280;37146;48.210;16.234;2023-02-01T06:29:38;98922.50;;;3.25;99.81
51099;BME280;37146;48.210;16.234;2023-02-01T06:32:03;98908.22;;;3.33;98.96
51099;BME280;37146;48.210;16.234;2023-02-01T06:34:28;98925.81;;;3.34;99.03
51099;BME280;37146;48.210;16.234;2023-02-01T06:36:54;98902.81;;;3.39;98.41
51099;BME280;37146;48.210;16.234;2023-02-01T06:39:20;98904.53;;;3.40;98.56
51099;BME280;37146;48.210;16.234;2023-02-01T06:41:46;98908.81;;;3.44;97.90
51099;BME280;37146;48.210;16.234;2023-02-01T06:44:11;98902.63;;;3.45;97.60
51099;BME280;37146;48.210;16.234;2023-02-01T06:46:37;98906.16;;;3.46;99.04
51099;BME280;37146;48.210;16.234;2023-02-01T06:49:02;98912.38;;;3.43;99.43
51099;BME280;37146;48.210;16.234;2023-02-01T06:51:27;98913.44;;;3.36;100.00
51099;BME280;37146;48.210;16.234;2023-02-01T06:53:54;98925.19;;;3.24;100.00
51099;BME280;37146;48.210;16.234;2023-02-01T06:56:19;98896.78;;;3.32;100.00
51099;BME280;37146;48.210;16.234;2023-02-01T06:58:45;98896.78;;;3.32;100.00
51099;BME280;37146;48.210;16.234;2023-02-01T07:01:10;98895.84;;;3.35;100.00
51099;BME280;37146;48.210;16.234;2023-02-01T07:03:36;98894.81;;;3.40;99.82
51099;BME280;37146;48.210;16.234;2023-02-01T07:06:01;98895.59;;;3.44;98.45
51099;BME280;37146;48.210;16.234;2023-02-01T07:08:27;98897.28;;;3.48;98.05
51099;BME280;37146;48.210;16.234;2023-02-01T07:10:52;98901.91;;;3.38;100.00
51099;BME280;37146;48.210;16.234;2023-02-01T07:13:18;98897.34;;;3.45;98.72
51099;BME280;37146;48.210;16.234;2023-02-01T07:15:43;98905.31;;;3.44;99.24
51099;BME280;37146;48.210;16.234;2023-02-01T07:18:08;98901.63;;;3.51;98.32
51099;BME280;37146;48.210;16.234;2023-02-01T07:20:33;98902.41;;;3.54;98.18
51099;BME280;37146;48.210;16.234;2023-02-01T07:22:59;98904.25;;;3.52;98.10
51099;BME280;37146;48.210;16.234;2023-02-01T07:25:24;98919.09;;;3.56;97.59
51099;BME280;37146;48.210;16.234;2023-02-01T07:27:49;98898.72;;;3.62;97.03
51099;BME280;37146;48.210;16.234;2023-02-01T07:30:14;98910.13;;;3.64;96.41
51099;BME280;37146;48.210;16.234;2023-02-01T07:32:39;98908.41;;;3.61;97.28
51099;BME280;37146;48.210;16.234;2023-02-01T07:35:05;98924.22;;;3.64;96.56
51099;BME280;37146;48.210;16.234;2023-02-01T07:37:30;98914.50;;;3.65;97.11
51099;BME280;37146;48.210;16.234;2023-02-01T07:39:55;98914.59;;;3.60;96.85
51099;BME280;37146;48.210;16.234;2023-02-01T07:42:21;98905.75;;;3.63;96.19
51099;BME280;37146;48.210;16.234;2023-02-01T07:44:46;98916.22;;;3.66;96.20
51099;BME280;37146;48.210;16.234;2023-02-01T07:47:11;98917.13;;;3.66;96.00
51099;BME280;37146;48.210;16.234;2023-02-01T07:49:36;98909.19;;;3.65;96.42
51099;BME280;37146;48.210;16.234;2023-02-01T07:52:01;98918.81;;;3.69;95.46
51099;BME280;37146;48.210;16.234;2023-02-01T07:54:27;98921.53;;;3.66;95.67
51099;BME280;37146;48.210;16.234;2023-02-01T07:56:52;98917.13;;;3.66;96.93
51099;BME280;37146;48.210;16.234;2023-02-01T07:59:17;98925.16;;;3.62;96.97
51099;BME280;37146;48.210;16.234;2023-02-01T08:01:43;98928.59;;;3.65;96.06
51099;BME280;37146;48.210;16.234;2023-02-01T08:04:09;98923.19;;;3.70;96.30
51099;BME280;37146;48.210;16.234;2023-02-01T08:06:35;98912.69;;;3.67;97.69
51099;BME280;37146;48.210;16.234;2023-02-01T08:09:01;98909.53;;;3.52;100.00
51099;BME280;37146;48.210;16.234;2023-02-01T08:11:26;98895.38;;;3.53;100.00
51099;BME280;37146;48.210;16.234;2023-02-01T08:13:51;98894.16;;;3.67;98.58
51099;BME280;37146;48.210;16.234;2023-02-01T08:16:17;98896.06;;;3.62;99.23
51099;BME280;37146;48.210;16.234;2023-02-01T08:18:43;98885.38;;;3.65;98.62
51099;BME280;37146;48.210;16.234;2023-02-01T08:21:10;98875.56;;;3.70;98.04
51099;BME280;37146;48.210;16.234;2023-02-01T08:23:36;98876.28;;;3.77;98.07
51099;BME280;37146;48.210;16.234;2023-02-01T08:26:20;98867.84;;;3.95;97.37
51099;BME280;37146;48.210;16.234;2023-02-01T08:28:56;98860.34;;;4.13;94.77
51099;BME280;37146;48.210;16.234;2023-02-01T08:31:22;98868.13;;;5.07;88.73
51099;BME280;37146;48.210;16.234;2023-02-01T08:33:49;98854.34;;;4.68;88.74
51099;BME280;37146;48.210;16.234;2023-02-01T08:36:15;98857.16;;;4.61;91.99
51099;BME280;37146;48.210;16.234;2023-02-01T08:38:40;98839.13;;;4.44;91.04
51099;BME280;37146;48.210;16.234;2023-02-01T08:41:10;98832.31;;;4.36;91.25
51099;BME280;37146;48.210;16.234;2023-02-01T08:43:35;98853.06;;;4.20;92.17
51099;BME280;37146;48.210;16.234;2023-02-01T08:46:01;98838.00;;;4.22;90.25
51099;BME280;37146;48.210;16.234;2023-02-01T08:48:26;98840.84;;;4.15;91.45
51099;BME280;37146;48.210;16.234;2023-02-01T08:50:51;98844.56;;;4.08;91.94
51099;BME280;37146;48.210;16.234;2023-02-01T08:53:16;98846.13;;;4.15;89.51
51099;BME280;37146;48.210;16.234;2023-02-01T08:55:42;98850.47;;;4.18;90.72
51099;BME280;37146;48.210;16.234;2023-02-01T08:58:07;98840.22;;;4.06;92.35
51099;BME280;37146;48.210;16.234;2023-02-01T09:00:32;98860.44;;;4.08;91.59
51099;BME280;37146;48.210;16.234;2023-02-01T09:02:57;98851.44;;;4.15;89.43
51099;BME280;37146;48.210;16.234;2023-02-01T09:05:23;98854.22;;;4.11;90.67
51099;BME280;37146;48.210;16.234;2023-02-01T09:07:51;98862.16;;;4.09;91.00
51099;BME280;37146;48.210;16.234;2023-02-01T09:10:16;98862.09;;;4.12;90.11
51099;BME280;37146;48.210;16.234;2023-02-01T09:12:42;98868.28;;;4.13;90.61
51099;BME280;37146;48.210;16.234;2023-02-01T09:15:07;98862.03;;;4.14;90.52
51099;BME280;37146;48.210;16.234;2023-02-01T09:17:33;98850.88;;;4.04;92.49
51099;BME280;37146;48.210;16.234;2023-02-01T09:19:58;98849.78;;;4.11;92.56
51099;BME280;37146;48.210;16.234;2023-02-01T09:22:23;98837.50;;;4.09;92.57
51099;BME280;37146;48.210;16.234;2023-02-01T09:24:49;98855.06;;;4.11;91.84
51099;BME280;37146;48.210;16.234;2023-02-01T09:27:14;98842.66;;;4.13;91.63
51099;BME280;37146;48.210;16.234;2023-02-01T09:29:39;98849.78;;;4.11;92.43
51099;BME280;37146;48.210;16.234;2023-02-01T09:32:04;98841.81;;;4.13;92.26
51099;BME280;37146;48.210;16.234;2023-02-01T09:34:31;98835.72;;;4.09;93.66
51099;BME280;37146;48.210;16.234;2023-02-01T09:36:56;98828.84;;;4.02;93.67
51099;BME280;37146;48.210;16.234;2023-02-01T09:39:22;98832.50;;;3.98;94.92
51099;BME280;37146;48.210;16.234;2023-02-01T09:41:58;98820.91;;;4.02;95.15
51099;BME280;37146;48.210;16.234;2023-02-01T09:46:57;98823.97;;;3.86;100.00
51099;BME280;37146;48.210;16.234;2023-02-01T09:49:25;98818.09;;;3.77;100.00
51099;BME280;37146;48.210;16.234;2023-02-01T09:51:51;98817.13;;;3.79;100.00
51099;BME280;37146;48.210;16.234;2023-02-01T09:56:49;98800.09;;;3.90;99.17
51099;BME280;37146;48.210;16.234;2023-02-01T10:01:48;98798.19;;;3.95;99.65
51099;BME280;37146;48.210;16.234;2023-02-01T10:04:14;98791.81;;;4.02;99.08
51099;BME280;37146;48.210;16.234;2023-02-01T10:15:15;98795.50;;;4.26;97.32
51099;BME280;37146;48.210;16.234;2023-02-01T10:22:09;98791.16;;;4.55;94.70
51099;BME280;37146;48.210;16.234;2023-02-01T10:27:38;98783.00;;;4.61;93.08
51099;BME280;37146;48.210;16.234;2023-02-01T10:30:26;98789.72;;;4.73;91.13
51099;BME280;37146;48.210;16.234;2023-02-01T10:33:02;98765.94;;;4.99;90.50
51099;BME280;37146;48.210;16.234;2023-02-01T10:35:33;98786.44;;;5.19;89.77
51099;BME280;37146;48.210;16.234;2023-02-01T10:38:01;98767.47;;;5.31;89.29
51099;BME280;37146;48.210;16.234;2023-02-01T10:40:27;98771.06;;;5.03;91.30
51099;BME280;37146;48.210;16.234;2023-02-01T10:42:54;98767.38;;;5.07;89.81
51099;BME280;37146;48.210;16.234;2023-02-01T10:45:20;98777.03;;;5.10;91.81
51099;BME280;37146;48.210;16.234;2023-02-01T10:47:47;98770.25;;;5.01;90.50
51099;BME280;37146;48.210;16.234;2023-02-01T10:50:25;98758.69;;;4.77;91.53
51099;BME280;37146;48.210;16.234;2023-02-01T10:55:25;98770.63;;;4.33;97.27
51099;BME280;37146;48.210;16.234;2023-02-01T10:57:57;98776.44;;;4.15;100.00
51099;BME280;37146;48.210;16.234;2023-02-01T11:00:23;98769.94;;;3.95;100.00
51099;BME280;37146;48.210;16.234;2023-02-01T11:02:48;98778.91;;;3.91;100.00
51099;BME280;37146;48.210;16.234;2023-02-01T11:05:15;98771.94;;;3.87;100.00
51099;BME280;37146;48.210;16.234;2023-02-01T11:07:46;98764.63;;;3.97;100.00
51099;BME280;37146;48.210;16.234;2023-02-01T11:12:56;98773.84;;;4.13;100.00
51099;BME280;37146;48.210;16.234;2023-02-01T11:15:23;98766.38;;;3.96;100.00
51099;BME280;37146;48.210;16.234;2023-02-01T11:17:51;98772.09;;;3.82;100.00
51099;BME280;37146;48.210;16.234;2023-02-01T11:20:24;98774.03;;;3.76;100.00
51099;BME280;37146;48.210;16.234;2023-02-01T11:23:00;98767.13;;;3.70;100.00
51099;BME280;37146;48.210;16.234;2023-02-01T11:25:26;98761.84;;;3.70;100.00
51099;BME280;37146;48.210;16.234;2023-02-01T11:27:53;98766.63;;;3.55;100.00
51099;BME280;37146;48.210;16.234;2023-02-01T11:30:22;98768.50;;;3.52;100.00
51099;BME280;37146;48.210;16.234;2023-02-01T11:32:51;98765.31;;;3.39;100.00
51099;BME280;37146;48.210;16.234;2023-02-01T11:35:18;98767.09;;;3.38;100.00
51099;BME280;37146;48.210;16.234;2023-02-01T11:37:44;98772.47;;;3.35;100.00
51099;BME280;37146;48.210;16.234;2023-02-01T11:42:52;98771.72;;;3.30;100.00
51099;BME280;37146;48.210;16.234;2023-02-01T11:45:20;98769.84;;;3.34;100.00
51099;BME280;37146;48.210;16.234;2023-02-01T11:47:45;98762.56;;;3.42;100.00
51099;BME280;37146;48.210;16.234;2023-02-01T11:50:15;98764.19;;;3.48;100.00
51099;BME280;37146;48.210;16.234;2023-02-01T11:52:57;98752.69;;;3.49;100.00
51099;BME280;37146;48.210;16.234;2023-02-01T11:55:29;98763.13;;;3.55;100.00
51099;BME280;37146;48.210;16.234;2023-02-01T11:58:06;98766.38;;;3.65;100.00
51099;BME280;37146;48.210;16.234;2023-02-01T12:00:40;98754.69;;;3.74;100.00
51099;BME280;37146;48.210;16.234;2023-02-01T12:03:20;98746.53;;;3.81;100.00
51099;BME280;37146;48.210;16.234;2023-02-01T12:14:44;98754.22;;;4.21;100.00
51099;BME280;37146;48.210;16.234;2023-02-01T12:16:40;98753.69;;;4.38;100.00
51099;BME280;37146;48.210;16.234;2023-02-01T12:19:15;98753.84;;;4.33;100.00
51099;BME280;37146;48.210;16.234;2023-02-01T12:21:56;98751.41;;;4.25;100.00
51099;BME280;37146;48.210;16.234;2023-02-01T12:24:33;98757.81;;;4.18;100.00
51099;BME280;37146;48.210;16.234;2023-02-01T12:27:06;98752.19;;;3.99;100.00
51099;BME280;37146;48.210;16.234;2023-02-01T12:37:37;98741.78;;;4.24;100.00
51099;BME280;37146;48.210;16.234;2023-02-01T12:42:45;98734.13;;;5.51;100.00
51099;BME280;37146;48.210;16.234;2023-02-01T12:45:22;98725.44;;;5.46;100.00
51099;BME280;37146;48.210;16.234;2023-02-01T12:47:51;98730.50;;;5.01;100.00
51099;BME280;37146;48.210;16.234;2023-02-01T12:50:27;98728.03;;;5.22;100.00
51099;BME280;37146;48.210;16.234;2023-02-01T12:52:54;98733.66;;;5.63;99.43
51099;BME280;37146;48.210;16.234;2023-02-01T12:56:02;98739.91;;;5.62;100.00
51099;BME280;37146;48.210;16.234;2023-02-01T12:58:15;98734.00;;;5.29;100.00
51099;BME280;37146;48.210;16.234;2023-02-01T13:01:01;98719.88;;;5.01;100.00
51099;BME280;37146;48.210;16.234;2023-02-01T13:06:26;98706.44;;;4.80;100.00
51099;BME280;37146;48.210;16.234;2023-02-01T13:09:27;98712.34;;;4.62;100.00
51099;BME280;37146;48.210;16.234;2023-02-01T13:11:45;98690.63;;;4.77;100.00
51099;BME280;37146;48.210;16.234;2023-02-01T13:14:19;98700.66;;;5.21;98.60
51099;BME280;37146;48.210;16.234;2023-02-01T13:16:48;98683.25;;;5.39;96.07
51099;BME280;37146;48.210;16.234;2023-02-01T13:19:19;98685.38;;;5.53;95.69
51099;BME280;37146;48.210;16.234;2023-02-01T13:21:46;98676.69;;;5.50;93.66
51099;BME280;37146;48.210;16.234;2023-02-01T13:24:21;98656.31;;;5.50;89.66
51099;BME280;37146;48.210;16.234;2023-02-01T13:26:47;98665.25;;;5.48;86.30
51099;BME280;37146;48.210;16.234;2023-02-01T13:29:13;98664.81;;;5.60;85.11
51099;BME280;37146;48.210;16.234;2023-02-01T13:44:39;98682.78;;;4.47;90.05
51099;BME280;37146;48.210;16.234;2023-02-01T13:47:12;98684.53;;;4.48;89.94
51099;BME280;37146;48.210;16.234;2023-02-01T13:49:39;98677.69;;;4.68;89.42
51099;BME280;37146;48.210;16.234;2023-02-01T13:52:06;98685.66;;;4.68;90.02
51099;BME280;37146;48.210;16.234;2023-02-01T13:54:42;98682.78;;;4.47;91.85
51099;BME280;37146;48.210;16.234;2023-02-01T13:57:15;98683.91;;;4.40;91.23
51099;BME280;37146;48.210;16.234;2023-02-01T13:59:52;98691.66;;;4.46;91.74
51099;BME280;37146;48.210;16.234;2023-02-01T14:05:04;98679.28;;;4.74;91.71
51099;BME280;37146;48.210;16.234;2023-02-01T14:07:29;98688.41;;;4.92;90.63
51099;BME280;37146;48.210;16.234;2023-02-01T14:09:54;98696.09;;;5.00;90.77
51099;BME280;37146;48.210;16.234;2023-02-01T14:15:17;98703.41;;;4.91;90.83
51099;BME280;37146;48.210;16.234;2023-02-01T14:17:42;98714.09;;;4.63;90.81
51099;BME280;37146;48.210;16.234;2023-02-01T14:20:57;98707.44;;;4.49;90.38
51099;BME280;37146;48.210;16.234;2023-02-01T14:23:00;98699.25;;;4.57;92.36
51099;BME280;37146;48.210;16.234;2023-02-01T14:25:25;98703.34;;;4.68;89.77
51099;BME280;37146;48.210;16.234;2023-02-01T14:27:57;98694.81;;;4.58;89.94
51099;BME280;37146;48.210;16.234;2023-02-01T14:30:22;98706.41;;;4.54;89.26
51099;BME280;37146;48.210;16.234;2023-02-01T14:32:48;98703.22;;;4.44;91.55
51099;BME280;37146;48.210;16.234;2023-02-01T14:35:18;98713.06;;;4.39;92.98
51099;BME280;37146;48.210;16.234;2023-02-01T14:37:44;98711.47;;;4.33;90.72
51099;BME280;37146;48.210;16.234;2023-02-01T15:00:46;98751.75;;;3.84;96.50